sensor_id;sensor_type;location;lat;lon;timestamp;P1;durP1;ratioP1;P2;durP2;ratioP2
58615;SDS011;44385;51.992;4.206;2023-12-28T00:00:05;9.05;;;3.00;;
58615;SDS011;44385;51.992;4.206;2023-12-28T00:02:32;14.50;;;2.90;;
58615;SDS011;44385;51.992;4.206;2023-12-28T00:04:59;11.18;;;3.20;;
58615;SDS011;44385;51.992;4.206;2023-12-28T00:07:25;7.82;;;3.03;;
58615;SDS011;44385;51.992;4.206;2023-12-28T00:09:52;7.13;;;2.60;;
58615;SDS011;44385;51.992;4.206;2023-12-28T00:12:19;5.63;;;2.90;;
58615;SDS011;44385;51.992;4.206;2023-12-28T00:14:50;10.52;;;3.03;;
58615;SDS011;44385;51.992;4.206;2023-12-28T00:17:17;12.38;;;3.55;;
58615;SDS011;44385;51.992;4.206;2023-12-28T00:19:44;8.20;;;2.92;;
58615;SDS011;44385;51.992;4.206;2023-12-28T00:22:10;9.02;;;2.90;;
58615;SDS011;44385;51.992;4.206;2023-12-28T00:24:37;10.95;;;2.78;;
58615;SDS011;44385;51.992;4.206;2023-12-28T00:27:03;13.13;;;3.38;;
58615;SDS011;44385;51.992;4.206;2023-12-28T00:29:31;9.13;;;2.60;;
58615;SDS011;44385;51.992;4.206;2023-12-28T00:31:59;10.27;;;2.85;;
58615;SDS011;44385;51.992;4.206;2023-12-28T00:34:25;6.85;;;2.97;;
58615;SDS011;44385;51.992;4.206;2023-12-28T00:36:52;8.48;;;3.25;;
58615;SDS011;44385;51.992;4.206;2023-12-28T00:39:18;9.68;;;2.70;;
58615;SDS011;44385;51.992;4.206;2023-12-28T00:41:44;11.57;;;3.53;;
58615;SDS011;44385;51.992;4.206;2023-12-28T00:44:11;6.70;;;2.63;;
58615;SDS011;44385;51.992;4.206;2023-12-28T00:46:39;5.78;;;2.53;;
58615;SDS011;44385;51.992;4.206;2023-12-28T00:49:05;5.15;;;2.72;;
58615;SDS011;44385;51.992;4.206;2023-12-28T00:51:33;6.38;;;2.75;;
58615;SDS011;44385;51.992;4.206;2023-12-28T00:53:59;5.60;;;2.60;;
58615;SDS011;44385;51.992;4.206;2023-12-28T00:56:26;7.38;;;2.25;;
58615;SDS011;44385;51.992;4.206;2023-12-28T00:58:52;8.68;;;2.72;;
58615;SDS011;44385;51.992;4.206;2023-12-28T01:01:19;5.93;;;1.98;;
58615;SDS011;44385;51.992;4.206;2023-12-28T01:03:50;6.88;;;3.05;;
58615;SDS011;44385;51.992;4.206;2023-12-28T01:06:17;4.88;;;2.53;;
58615;SDS011;44385;51.992;4.206;2023-12-28T01:08:44;10.63;;;2.75;;
58615;SDS011;44385;51.992;4.206;2023-12-28T01:11:10;7.10;;;2.65;;
58615;SDS011;44385;51.992;4.206;2023-12-28T01:13:37;8.10;;;2.63;;
58615;SDS011;44385;51.992;4.206;2023-12-28T01:16:05;11.55;;;3.13;;
58615;SDS011;44385;51.992;4.206;2023-12-28T01:18:31;9.60;;;2.60;;
58615;SDS011;44385;51.992;4.206;2023-12-28T01:20:59;4.20;;;2.55;;
58615;SDS011;44385;51.992;4.206;2023-12-28T01:23:26;6.47;;;2.55;;
58615;SDS011;44385;51.992;4.206;2023-12-28T01:25:52;9.07;;;3.28;;
58615;SDS011;44385;51.992;4.206;2023-12-28T01:28:21;4.70;;;2.45;;
58615;SDS011;44385;51.992;4.206;2023-12-28T01:30:48;5.88;;;2.67;;
58615;SDS011;44385;51.992;4.206;2023-12-28T01:33:16;6.15;;;2.78;;
58615;SDS011;44385;51.992;4.206;2023-12-28T01:35:43;6.45;;;2.47;;
58615;SDS011;44385;51.992;4.206;2023-12-28T01:38:11;7.20;;;2.80;;
58615;SDS011;44385;51.992;4.206;2023-12-28T01:40:37;6.63;;;2.58;;
58615;SDS011;44385;51.992;4.206;2023-12-28T01:43:04;10.90;;;4.43;;
58615;SDS011;44385;51.992;4.206;2023-12-28T01:45:30;11.35;;;3.17;;
58615;SDS011;44385;51.992;4.206;2023-12-28T01:47:57;6.85;;;3.30;;
58615;SDS011;44385;51.992;4.206;2023-12-28T01:50:24;8.32;;;2.10;;
58615;SDS011;44385;51.992;4.206;2023-12-28T01:52:52;8.80;;;2.53;;
58615;SDS011;44385;51.992;4.206;2023-12-28T01:55:20;7.22;;;2.45;;
58615;SDS011;44385;51.992;4.206;2023-12-28T01:57:50;10.88;;;2.67;;
58615;SDS011;44385;51.992;4.206;2023-12-28T02:00:17;6.68;;;1.92;;
58615;SDS011;44385;51.992;4.206;2023-12-28T02:02:44;6.97;;;2.17;;
58615;SDS011;44385;51.992;4.206;2023-12-28T02:05:11;8.85;;;1.90;;
58615;SDS011;44385;51.992;4.206;2023-12-28T02:07:37;14.48;;;2.30;;
58615;SDS011;44385;51.992;4.206;2023-12-28T02:10:04;11.27;;;2.85;;
58615;SDS011;44385;51.992;4.206;2023-12-28T02:12:32;12.73;;;2.40;;
58615;SDS011;44385;51.992;4.206;2023-12-28T02:14:59;8.30;;;2.20;;
58615;SDS011;44385;51.992;4.206;2023-12-28T02:17:26;9.48;;;3.00;;
58615;SDS011;44385;51.992;4.206;2023-12-28T02:19:54;13.02;;;2.55;;
58615;SDS011;44385;51.992;4.206;2023-12-28T02:22:23;14.20;;;2.55;;
58615;SDS011;44385;51.992;4.206;2023-12-28T02:25:07;9.18;;;1.92;;
58615;SDS011;44385;51.992;4.206;2023-12-28T02:27:34;5.47;;;2.25;;
58615;SDS011;44385;51.992;4.206;2023-12-28T02:30:00;6.28;;;2.35;;
58615;SDS011;44385;51.992;4.206;2023-12-28T02:32:31;11.13;;;2.60;;
58615;SDS011;44385;51.992;4.206;2023-12-28T02:35:14;10.73;;;2.40;;
58615;SDS011;44385;51.992;4.206;2023-12-28T02:37:43;6.97;;;2.50;;
58615;SDS011;44385;51.992;4.206;2023-12-28T02:40:12;10.02;;;2.30;;
58615;SDS011;44385;51.992;4.206;2023-12-28T02:42:40;6.13;;;1.65;;
58615;SDS011;44385;51.992;4.206;2023-12-28T02:45:06;11.75;;;2.03;;
58615;SDS011;44385;51.992;4.206;2023-12-28T02:47:33;9.10;;;2.20;;
58615;SDS011;44385;51.992;4.206;2023-12-28T02:49:59;8.70;;;2.15;;
58615;SDS011;44385;51.992;4.206;2023-12-28T02:52:26;14.50;;;3.25;;
58615;SDS011;44385;51.992;4.206;2023-12-28T02:54:52;14.88;;;4.13;;
58615;SDS011;44385;51.992;4.206;2023-12-28T02:57:20;9.13;;;2.13;;
58615;SDS011;44385;51.992;4.206;2023-12-28T02:59:46;12.40;;;2.85;;
58615;SDS011;44385;51.992;4.206;2023-12-28T03:02:17;11.50;;;2.10;;
58615;SDS011;44385;51.992;4.206;2023-12-28T03:04:44;10.35;;;2.45;;
58615;SDS011;44385;51.992;4.206;2023-12-28T03:07:10;15.18;;;2.80;;
58615;SDS011;44385;51.992;4.206;2023-12-28T03:09:37;8.98;;;2.05;;
58615;SDS011;44385;51.992;4.206;2023-12-28T03:12:05;18.73;;;3.17;;
58615;SDS011;44385;51.992;4.206;2023-12-28T03:14:33;13.20;;;2.35;;
58615;SDS011;44385;51.992;4.206;2023-12-28T03:17:00;11.55;;;2.05;;
58615;SDS011;44385;51.992;4.206;2023-12-28T03:19:26;13.25;;;2.25;;
58615;SDS011;44385;51.992;4.206;2023-12-28T03:21:52;12.95;;;2.83;;
58615;SDS011;44385;51.992;4.206;2023-12-28T03:24:19;11.63;;;2.30;;
58615;SDS011;44385;51.992;4.206;2023-12-28T03:26:45;13.63;;;2.67;;
58615;SDS011;44385;51.992;4.206;2023-12-28T03:29:13;10.20;;;2.47;;
58615;SDS011;44385;51.992;4.206;2023-12-28T03:31:40;9.25;;;2.53;;
58615;SDS011;44385;51.992;4.206;2023-12-28T03:34:07;12.10;;;2.50;;
58615;SDS011;44385;51.992;4.206;2023-12-28T03:36:33;11.68;;;2.22;;
58615;SDS011;44385;51.992;4.206;2023-12-28T03:39:00;17.73;;;2.50;;
58615;SDS011;44385;51.992;4.206;2023-12-28T03:41:26;11.82;;;2.88;;
58615;SDS011;44385;51.992;4.206;2023-12-28T03:43:53;13.38;;;3.00;;
58615;SDS011;44385;51.992;4.206;2023-12-28T03:46:19;7.13;;;1.88;;
58615;SDS011;44385;51.992;4.206;2023-12-28T03:48:48;9.90;;;2.20;;
58615;SDS011;44385;51.992;4.206;2023-12-28T03:51:16;13.38;;;2.38;;
58615;SDS011;44385;51.992;4.206;2023-12-28T03:53:43;10.35;;;2.30;;
58615;SDS011;44385;51.992;4.206;2023-12-28T03:56:17;8.63;;;2.38;;
58615;SDS011;44385;51.992;4.206;2023-12-28T03:58:44;13.15;;;2.65;;
58615;SDS011;44385;51.992;4.206;2023-12-28T04:01:11;9.45;;;2.20;;
58615;SDS011;44385;51.992;4.206;2023-12-28T04:03:37;7.93;;;1.90;;
58615;SDS011;44385;51.992;4.206;2023-12-28T04:06:06;15.23;;;3.35;;
58615;SDS011;44385;51.992;4.206;2023-12-28T04:08:33;14.05;;;3.05;;
58615;SDS011;44385;51.992;4.206;2023-12-28T04:10:59;15.43;;;3.22;;
58615;SDS011;44385;51.992;4.206;2023-12-28T04:13:26;7.32;;;2.35;;
58615;SDS011;44385;51.992;4.206;2023-12-28T04:15:52;11.07;;;2.67;;
58615;SDS011;44385;51.992;4.206;2023-12-28T04:18:19;13.20;;;2.05;;
58615;SDS011;44385;51.992;4.206;2023-12-28T04:20:45;15.23;;;2.85;;
58615;SDS011;44385;51.992;4.206;2023-12-28T04:23:14;9.48;;;3.00;;
58615;SDS011;44385;51.992;4.206;2023-12-28T04:25:40;14.13;;;3.03;;
58615;SDS011;44385;51.992;4.206;2023-12-28T04:28:07;11.95;;;2.33;;
58615;SDS011;44385;51.992;4.206;2023-12-28T04:30:33;11.57;;;2.88;;
58615;SDS011;44385;51.992;4.206;2023-12-28T04:33:00;12.77;;;2.80;;
58615;SDS011;44385;51.992;4.206;2023-12-28T04:35:26;11.90;;;2.20;;
58615;SDS011;44385;51.992;4.206;2023-12-28T04:37:53;12.52;;;2.50;;
58615;SDS011;44385;51.992;4.206;2023-12-28T04:40:21;11.80;;;3.47;;
58615;SDS011;44385;51.992;4.206;2023-12-28T04:42:49;12.18;;;2.80;;
58615;SDS011;44385;51.992;4.206;2023-12-28T04:45:16;14.98;;;3.42;;
58615;SDS011;44385;51.992;4.206;2023-12-28T04:47:42;12.43;;;2.53;;
58615;SDS011;44385;51.992;4.206;2023-12-28T04:50:09;10.77;;;2.53;;
58615;SDS011;44385;51.992;4.206;2023-12-28T04:52:35;17.20;;;4.03;;
58615;SDS011;44385;51.992;4.206;2023-12-28T04:55:02;14.18;;;3.22;;
58615;SDS011;44385;51.992;4.206;2023-12-28T04:57:30;11.90;;;2.63;;
58615;SDS011;44385;51.992;4.206;2023-12-28T04:59:56;15.43;;;3.63;;
58615;SDS011;44385;51.992;4.206;2023-12-28T05:02:23;12.05;;;2.72;;
58615;SDS011;44385;51.992;4.206;2023-12-28T05:04:50;17.58;;;3.42;;
58615;SDS011;44385;51.992;4.206;2023-12-28T05:07:17;16.35;;;3.45;;
58615;SDS011;44385;51.992;4.206;2023-12-28T05:09:43;18.70;;;4.10;;
58615;SDS011;44385;51.992;4.206;2023-12-28T05:12:10;20.17;;;3.60;;
58615;SDS011;44385;51.992;4.206;2023-12-28T05:14:38;15.35;;;3.63;;
58615;SDS011;44385;51.992;4.206;2023-12-28T05:17:05;20.02;;;4.53;;
58615;SDS011;44385;51.992;4.206;2023-12-28T05:19:31;21.25;;;3.42;;
58615;SDS011;44385;51.992;4.206;2023-12-28T05:21:57;18.75;;;3.63;;
58615;SDS011;44385;51.992;4.206;2023-12-28T05:24:28;17.55;;;3.13;;
58615;SDS011;44385;51.992;4.206;2023-12-28T05:26:54;23.02;;;4.13;;
58615;SDS011;44385;51.992;4.206;2023-12-28T05:29:21;19.60;;;3.53;;
58615;SDS011;44385;51.992;4.206;2023-12-28T05:31:52;17.00;;;3.17;;
58615;SDS011;44385;51.992;4.206;2023-12-28T05:34:18;16.00;;;3.22;;
58615;SDS011;44385;51.992;4.206;2023-12-28T05:36:44;18.30;;;3.67;;
58615;SDS011;44385;51.992;4.206;2023-12-28T05:39:11;19.33;;;3.90;;
58615;SDS011;44385;51.992;4.206;2023-12-28T05:41:38;21.48;;;3.55;;
58615;SDS011;44385;51.992;4.206;2023-12-28T05:44:05;15.32;;;3.17;;
58615;SDS011;44385;51.992;4.206;2023-12-28T05:46:31;25.63;;;6.20;;
58615;SDS011;44385;51.992;4.206;2023-12-28T05:48:59;17.17;;;4.47;;
58615;SDS011;44385;51.992;4.206;2023-12-28T05:51:26;12.55;;;3.30;;
58615;SDS011;44385;51.992;4.206;2023-12-28T05:53:52;13.85;;;3.90;;
58615;SDS011;44385;51.992;4.206;2023-12-28T05:56:18;24.10;;;4.03;;
58615;SDS011;44385;51.992;4.206;2023-12-28T05:58:45;22.70;;;3.90;;
58615;SDS011;44385;51.992;4.206;2023-12-28T06:01:11;19.20;;;5.50;;
58615;SDS011;44385;51.992;4.206;2023-12-28T06:03:38;21.23;;;4.30;;
58615;SDS011;44385;51.992;4.206;2023-12-28T06:06:06;13.43;;;4.28;;
58615;SDS011;44385;51.992;4.206;2023-12-28T06:08:32;18.75;;;4.10;;
58615;SDS011;44385;51.992;4.206;2023-12-28T06:10:59;23.73;;;4.65;;
58615;SDS011;44385;51.992;4.206;2023-12-28T06:13:25;26.38;;;4.45;;
58615;SDS011;44385;51.992;4.206;2023-12-28T06:15:52;30.92;;;5.25;;
58615;SDS011;44385;51.992;4.206;2023-12-28T06:18:18;23.58;;;4.80;;
58615;SDS011;44385;51.992;4.206;2023-12-28T06:20:45;19.70;;;5.22;;
58615;SDS011;44385;51.992;4.206;2023-12-28T06:23:13;22.35;;;4.57;;
58615;SDS011;44385;51.992;4.206;2023-12-28T06:25:39;15.82;;;3.45;;
58615;SDS011;44385;51.992;4.206;2023-12-28T06:28:06;19.92;;;4.80;;
58615;SDS011;44385;51.992;4.206;2023-12-28T06:30:32;29.27;;;5.05;;
58615;SDS011;44385;51.992;4.206;2023-12-28T06:32:58;21.17;;;4.13;;
58615;SDS011;44385;51.992;4.206;2023-12-28T06:35:25;25.20;;;4.88;;
58615;SDS011;44385;51.992;4.206;2023-12-28T06:37:51;17.27;;;4.13;;
58615;SDS011;44385;51.992;4.206;2023-12-28T06:40:19;23.00;;;5.38;;
58615;SDS011;44385;51.992;4.206;2023-12-28T06:42:46;15.45;;;3.55;;
58615;SDS011;44385;51.992;4.206;2023-12-28T06:45:16;19.23;;;4.38;;
58615;SDS011;44385;51.992;4.206;2023-12-28T06:47:43;21.42;;;4.80;;
58615;SDS011;44385;51.992;4.206;2023-12-28T06:50:09;24.75;;;4.47;;
58615;SDS011;44385;51.992;4.206;2023-12-28T06:52:36;15.15;;;3.50;;
58615;SDS011;44385;51.992;4.206;2023-12-28T06:55:02;17.88;;;4.55;;
58615;SDS011;44385;51.992;4.206;2023-12-28T06:57:30;17.20;;;4.13;;
58615;SDS011;44385;51.992;4.206;2023-12-28T06:59:56;20.83;;;3.97;;
58615;SDS011;44385;51.992;4.206;2023-12-28T07:02:25;21.83;;;4.10;;
58615;SDS011;44385;51.992;4.206;2023-12-28T07:04:51;21.90;;;4.50;;
58615;SDS011;44385;51.992;4.206;2023-12-28T07:07:17;12.27;;;3.40;;
58615;SDS011;44385;51.992;4.206;2023-12-28T07:09:44;20.65;;;4.03;;
58615;SDS011;44385;51.992;4.206;2023-12-28T07:12:10;17.67;;;3.75;;
58615;SDS011;44385;51.992;4.206;2023-12-28T07:14:38;24.98;;;4.47;;
58615;SDS011;44385;51.992;4.206;2023-12-28T07:17:05;17.80;;;3.47;;
58615;SDS011;44385;51.992;4.206;2023-12-28T07:19:31;26.33;;;4.60;;
58615;SDS011;44385;51.992;4.206;2023-12-28T07:21:58;22.98;;;4.32;;
58615;SDS011;44385;51.992;4.206;2023-12-28T07:24:24;19.70;;;3.97;;
58615;SDS011;44385;51.992;4.206;2023-12-28T07:26:51;17.13;;;4.18;;
58615;SDS011;44385;51.992;4.206;2023-12-28T07:29:17;23.40;;;4.10;;
58615;SDS011;44385;51.992;4.206;2023-12-28T07:31:45;19.40;;;3.70;;
58615;SDS011;44385;51.992;4.206;2023-12-28T07:34:12;15.45;;;3.65;;
58615;SDS011;44385;51.992;4.206;2023-12-28T07:36:38;20.65;;;4.40;;
58615;SDS011;44385;51.992;4.206;2023-12-28T07:39:07;13.73;;;3.42;;
58615;SDS011;44385;51.992;4.206;2023-12-28T07:41:34;16.65;;;3.72;;
58615;SDS011;44385;51.992;4.206;2023-12-28T07:44:00;14.93;;;3.65;;
58615;SDS011;44385;51.992;4.206;2023-12-28T07:46:27;16.50;;;3.30;;
58615;SDS011;44385;51.992;4.206;2023-12-28T07:48:55;23.17;;;3.92;;
58615;SDS011;44385;51.992;4.206;2023-12-28T07:51:21;22.30;;;4.15;;
58615;SDS011;44385;51.992;4.206;2023-12-28T07:53:49;22.67;;;4.68;;
58615;SDS011;44385;51.992;4.206;2023-12-28T07:56:16;17.58;;;3.20;;
58615;SDS011;44385;51.992;4.206;2023-12-28T07:58:42;19.83;;;3.70;;
58615;SDS011;44385;51.992;4.206;2023-12-28T08:01:09;22.02;;;4.43;;
58615;SDS011;44385;51.992;4.206;2023-12-28T08:03:36;20.63;;;3.33;;
58615;SDS011;44385;51.992;4.206;2023-12-28T08:06:05;21.50;;;4.70;;
58615;SDS011;44385;51.992;4.206;2023-12-28T08:08:31;20.73;;;4.80;;
58615;SDS011;44385;51.992;4.206;2023-12-28T08:10:58;25.98;;;4.97;;
58615;SDS011;44385;51.992;4.206;2023-12-28T08:13:24;20.83;;;4.13;;
58615;SDS011;44385;51.992;4.206;2023-12-28T08:15:51;16.23;;;3.92;;
58615;SDS011;44385;51.992;4.206;2023-12-28T08:18:17;20.02;;;4.65;;
58615;SDS011;44385;51.992;4.206;2023-12-28T08:20:44;15.60;;;3.10;;
58615;SDS011;44385;51.992;4.206;2023-12-28T08:23:12;16.08;;;3.47;;
58615;SDS011;44385;51.992;4.206;2023-12-28T08:25:38;21.33;;;3.30;;
58615;SDS011;44385;51.992;4.206;2023-12-28T08:28:05;15.48;;;3.63;;
58615;SDS011;44385;51.992;4.206;2023-12-28T08:30:31;18.90;;;4.15;;
58615;SDS011;44385;51.992;4.206;2023-12-28T08:32:58;20.48;;;3.78;;
58615;SDS011;44385;51.992;4.206;2023-12-28T08:35:24;15.98;;;3.25;;
58615;SDS011;44385;51.992;4.206;2023-12-28T08:37:51;21.45;;;3.50;;
58615;SDS011;44385;51.992;4.206;2023-12-28T08:40:19;28.58;;;4.50;;
58615;SDS011;44385;51.992;4.206;2023-12-28T08:42:45;17.73;;;3.60;;
58615;SDS011;44385;51.992;4.206;2023-12-28T08:45:12;19.20;;;3.67;;
58615;SDS011;44385;51.992;4.206;2023-12-28T08:47:38;8.98;;;2.92;;
58615;SDS011;44385;51.992;4.206;2023-12-28T08:50:05;19.52;;;4.03;;
58615;SDS011;44385;51.992;4.206;2023-12-28T08:52:32;17.60;;;3.85;;
58615;SDS011;44385;51.992;4.206;2023-12-28T08:54:58;17.73;;;5.50;;
58615;SDS011;44385;51.992;4.206;2023-12-28T08:57:27;19.88;;;3.58;;
58615;SDS011;44385;51.992;4.206;2023-12-28T08:59:54;13.07;;;3.47;;
58615;SDS011;44385;51.992;4.206;2023-12-28T09:02:20;20.15;;;3.50;;
58615;SDS011;44385;51.992;4.206;2023-12-28T09:04:51;17.25;;;3.65;;
58615;SDS011;44385;51.992;4.206;2023-12-28T09:09:44;20.60;;;3.75;;
58615;SDS011;44385;51.992;4.206;2023-12-28T09:12:11;18.42;;;4.03;;
58615;SDS011;44385;51.992;4.206;2023-12-28T09:14:39;24.98;;;4.20;;
58615;SDS011;44385;51.992;4.206;2023-12-28T09:17:05;20.95;;;4.20;;
58615;SDS011;44385;51.992;4.206;2023-12-28T09:19:32;21.65;;;3.88;;
58615;SDS011;44385;51.992;4.206;2023-12-28T09:21:58;25.23;;;4.68;;
58615;SDS011;44385;51.992;4.206;2023-12-28T09:24:25;20.15;;;3.67;;
58615;SDS011;44385;51.992;4.206;2023-12-28T09:26:51;19.83;;;4.18;;
58615;SDS011;44385;51.992;4.206;2023-12-28T09:29:18;16.05;;;3.45;;
58615;SDS011;44385;51.992;4.206;2023-12-28T09:31:46;11.07;;;2.67;;
58615;SDS011;44385;51.992;4.206;2023-12-28T09:34:15;21.58;;;4.30;;
58615;SDS011;44385;51.992;4.206;2023-12-28T09:36:42;15.15;;;3.53;;
58615;SDS011;44385;51.992;4.206;2023-12-28T09:39:09;16.35;;;3.42;;
58615;SDS011;44385;51.992;4.206;2023-12-28T09:41:37;17.25;;;4.38;;
58615;SDS011;44385;51.992;4.206;2023-12-28T09:44:07;22.85;;;3.95;;
58615;SDS011;44385;51.992;4.206;2023-12-28T09:46:35;17.83;;;3.63;;
58615;SDS011;44385;51.992;4.206;2023-12-28T09:49:03;20.73;;;4.32;;
58615;SDS011;44385;51.992;4.206;2023-12-28T09:51:29;22.90;;;3.95;;
58615;SDS011;44385;51.992;4.206;2023-12-28T09:53:56;18.83;;;4.03;;
58615;SDS011;44385;51.992;4.206;2023-12-28T09:56:22;19.73;;;4.35;;
58615;SDS011;44385;51.992;4.206;2023-12-28T09:58:49;19.67;;;4.75;;
58615;SDS011;44385;51.992;4.206;2023-12-28T10:01:17;20.92;;;3.75;;
58615;SDS011;44385;51.992;4.206;2023-12-28T10:03:44;18.90;;;3.85;;
58615;SDS011;44385;51.992;4.206;2023-12-28T10:06:12;12.60;;;2.92;;
58615;SDS011;44385;51.992;4.206;2023-12-28T10:08:44;19.83;;;3.45;;
58615;SDS011;44385;51.992;4.206;2023-12-28T10:11:11;20.55;;;4.80;;
58615;SDS011;44385;51.992;4.206;2023-12-28T10:13:38;21.25;;;4.63;;
58615;SDS011;44385;51.992;4.206;2023-12-28T10:16:04;21.00;;;4.88;;
58615;SDS011;44385;51.992;4.206;2023-12-28T10:18:31;17.27;;;3.88;;
58615;SDS011;44385;51.992;4.206;2023-12-28T10:20:57;13.00;;;2.95;;
58615;SDS011;44385;51.992;4.206;2023-12-28T10:23:25;12.85;;;3.40;;
58615;SDS011;44385;51.992;4.206;2023-12-28T10:25:55;17.15;;;3.47;;
58615;SDS011;44385;51.992;4.206;2023-12-28T10:28:22;17.45;;;3.92;;
58615;SDS011;44385;51.992;4.206;2023-12-28T10:30:54;23.15;;;4.10;;
58615;SDS011;44385;51.992;4.206;2023-12-28T10:33:19;12.77;;;3.65;;
58615;SDS011;44385;51.992;4.206;2023-12-28T10:35:46;16.75;;;4.30;;
58615;SDS011;44385;51.992;4.206;2023-12-28T10:38:15;13.60;;;3.88;;
58615;SDS011;44385;51.992;4.206;2023-12-28T10:40:44;19.50;;;4.55;;
58615;SDS011;44385;51.992;4.206;2023-12-28T10:43:14;21.15;;;3.55;;
58615;SDS011;44385;51.992;4.206;2023-12-28T10:45:41;19.73;;;4.70;;
58615;SDS011;44385;51.992;4.206;2023-12-28T10:48:10;19.45;;;3.45;;
58615;SDS011;44385;51.992;4.206;2023-12-28T10:50:38;21.55;;;4.00;;
58615;SDS011;44385;51.992;4.206;2023-12-28T10:53:08;14.63;;;3.13;;
58615;SDS011;44385;51.992;4.206;2023-12-28T10:55:39;20.55;;;4.38;;
58615;SDS011;44385;51.992;4.206;2023-12-28T10:58:10;12.63;;;3.50;;
58615;SDS011;44385;51.992;4.206;2023-12-28T11:00:45;22.60;;;4.32;;
58615;SDS011;44385;51.992;4.206;2023-12-28T11:03:18;23.58;;;4.65;;
58615;SDS011;44385;51.992;4.206;2023-12-28T11:05:45;13.60;;;3.58;;
58615;SDS011;44385;51.992;4.206;2023-12-28T11:08:15;21.65;;;5.10;;
58615;SDS011;44385;51.992;4.206;2023-12-28T11:10:43;23.45;;;4.78;;
58615;SDS011;44385;51.992;4.206;2023-12-28T11:13:11;25.23;;;3.80;;
58615;SDS011;44385;51.992;4.206;2023-12-28T11:15:40;17.17;;;3.95;;
58615;SDS011;44385;51.992;4.206;2023-12-28T11:18:07;16.35;;;4.00;;
58615;SDS011;44385;51.992;4.206;2023-12-28T11:20:33;17.67;;;3.95;;
58615;SDS011;44385;51.992;4.206;2023-12-28T11:23:00;20.15;;;4.47;;
58615;SDS011;44385;51.992;4.206;2023-12-28T11:25:30;18.15;;;4.40;;
58615;SDS011;44385;51.992;4.206;2023-12-28T11:27:57;22.58;;;4.13;;
58615;SDS011;44385;51.992;4.206;2023-12-28T11:30:26;21.85;;;3.90;;
58615;SDS011;44385;51.992;4.206;2023-12-28T11:32:55;24.33;;;4.32;;
58615;SDS011;44385;51.992;4.206;2023-12-28T11:35:22;16.45;;;3.50;;
58615;SDS011;44385;51.992;4.206;2023-12-28T11:37:51;16.52;;;3.17;;
58615;SDS011;44385;51.992;4.206;2023-12-28T11:40:18;17.17;;;4.35;;
58615;SDS011;44385;51.992;4.206;2023-12-28T11:42:49;22.38;;;4.13;;
58615;SDS011;44385;51.992;4.206;2023-12-28T11:45:16;20.85;;;4.15;;
58615;SDS011;44385;51.992;4.206;2023-12-28T11:47:45;23.15;;;4.65;;
58615;SDS011;44385;51.992;4.206;2023-12-28T11:50:12;17.13;;;3.70;;
58615;SDS011;44385;51.992;4.206;2023-12-28T11:52:39;29.75;;;4.40;;
58615;SDS011;44385;51.992;4.206;2023-12-28T11:55:05;17.90;;;5.25;;
58615;SDS011;44385;51.992;4.206;2023-12-28T11:57:32;28.02;;;4.53;;
58615;SDS011;44385;51.992;4.206;2023-12-28T11:59:59;12.07;;;2.72;;
58615;SDS011;44385;51.992;4.206;2023-12-28T12:02:26;17.02;;;3.92;;
58615;SDS011;44385;51.992;4.206;2023-12-28T12:04:54;22.85;;;4.65;;
58615;SDS011;44385;51.992;4.206;2023-12-28T12:09:48;27.65;;;4.90;;
58615;SDS011;44385;51.992;4.206;2023-12-28T12:12:15;20.55;;;4.25;;
58615;SDS011;44385;51.992;4.206;2023-12-28T12:14:42;16.80;;;3.55;;
58615;SDS011;44385;51.992;4.206;2023-12-28T12:17:09;18.95;;;3.50;;
58615;SDS011;44385;51.992;4.206;2023-12-28T12:19:35;18.58;;;3.88;;
58615;SDS011;44385;51.992;4.206;2023-12-28T12:22:03;14.07;;;3.67;;
58615;SDS011;44385;51.992;4.206;2023-12-28T12:24:30;20.83;;;3.63;;
58615;SDS011;44385;51.992;4.206;2023-12-28T12:26:57;15.90;;;3.60;;
58615;SDS011;44385;51.992;4.206;2023-12-28T12:29:29;15.68;;;3.35;;
58615;SDS011;44385;51.992;4.206;2023-12-28T12:31:55;17.42;;;3.22;;
58615;SDS011;44385;51.992;4.206;2023-12-28T12:34:22;16.13;;;3.30;;
58615;SDS011;44385;51.992;4.206;2023-12-28T12:36:49;21.10;;;3.72;;
58615;SDS011;44385;51.992;4.206;2023-12-28T12:39:20;20.63;;;4.50;;
58615;SDS011;44385;51.992;4.206;2023-12-28T12:41:49;17.35;;;3.80;;
58615;SDS011;44385;51.992;4.206;2023-12-28T12:44:16;14.60;;;3.50;;
58615;SDS011;44385;51.992;4.206;2023-12-28T12:46:43;21.88;;;4.18;;
58615;SDS011;44385;51.992;4.206;2023-12-28T12:49:10;9.10;;;2.78;;
58615;SDS011;44385;51.992;4.206;2023-12-28T12:51:37;24.25;;;4.80;;
58615;SDS011;44385;51.992;4.206;2023-12-28T12:54:05;20.88;;;3.63;;
58615;SDS011;44385;51.992;4.206;2023-12-28T12:56:33;23.17;;;3.97;;
58615;SDS011;44385;51.992;4.206;2023-12-28T12:59:00;21.75;;;4.35;;
58615;SDS011;44385;51.992;4.206;2023-12-28T13:01:26;23.17;;;4.07;;
58615;SDS011;44385;51.992;4.206;2023-12-28T13:03:53;18.15;;;4.35;;
58615;SDS011;44385;51.992;4.206;2023-12-28T13:06:22;15.50;;;3.75;;
58615;SDS011;44385;51.992;4.206;2023-12-28T13:08:49;17.38;;;3.38;;
58615;SDS011;44385;51.992;4.206;2023-12-28T13:11:16;21.17;;;3.78;;
58615;SDS011;44385;51.992;4.206;2023-12-28T13:13:44;15.32;;;3.00;;
58615;SDS011;44385;51.992;4.206;2023-12-28T13:16:11;16.33;;;4.15;;
58615;SDS011;44385;51.992;4.206;2023-12-28T13:18:38;25.83;;;4.35;;
58615;SDS011;44385;51.992;4.206;2023-12-28T13:21:04;20.02;;;3.85;;
58615;SDS011;44385;51.992;4.206;2023-12-28T13:23:30;26.13;;;3.90;;
58615;SDS011;44385;51.992;4.206;2023-12-28T13:25:57;23.73;;;4.78;;
58615;SDS011;44385;51.992;4.206;2023-12-28T13:28:24;10.20;;;3.25;;
58615;SDS011;44385;51.992;4.206;2023-12-28T13:30:51;19.98;;;4.13;;
58615;SDS011;44385;51.992;4.206;2023-12-28T13:33:20;20.20;;;4.53;;
58615;SDS011;44385;51.992;4.206;2023-12-28T13:35:48;26.00;;;4.35;;
58615;SDS011;44385;51.992;4.206;2023-12-28T13:38:15;20.40;;;3.95;;
58615;SDS011;44385;51.992;4.206;2023-12-28T13:40:42;12.90;;;3.42;;
58615;SDS011;44385;51.992;4.206;2023-12-28T13:43:09;16.77;;;3.13;;
58615;SDS011;44385;51.992;4.206;2023-12-28T13:45:35;18.35;;;3.92;;
58615;SDS011;44385;51.992;4.206;2023-12-28T13:48:03;17.35;;;4.00;;
58615;SDS011;44385;51.992;4.206;2023-12-28T13:50:30;29.88;;;4.85;;
58615;SDS011;44385;51.992;4.206;2023-12-28T13:52:57;25.05;;;4.90;;
58615;SDS011;44385;51.992;4.206;2023-12-28T13:55:23;28.58;;;4.60;;
58615;SDS011;44385;51.992;4.206;2023-12-28T13:57:50;15.18;;;3.38;;
58615;SDS011;44385;51.992;4.206;2023-12-28T14:00:16;24.35;;;4.65;;
58615;SDS011;44385;51.992;4.206;2023-12-28T14:02:43;18.83;;;4.22;;
58615;SDS011;44385;51.992;4.206;2023-12-28T14:05:11;24.92;;;4.80;;
58615;SDS011;44385;51.992;4.206;2023-12-28T14:07:38;20.58;;;3.97;;
58615;SDS011;44385;51.992;4.206;2023-12-28T14:10:04;23.38;;;4.28;;
58615;SDS011;44385;51.992;4.206;2023-12-28T14:12:31;12.57;;;3.15;;
58615;SDS011;44385;51.992;4.206;2023-12-28T14:14:58;25.20;;;4.53;;
58615;SDS011;44385;51.992;4.206;2023-12-28T14:17:24;22.83;;;3.92;;
58615;SDS011;44385;51.992;4.206;2023-12-28T14:19:51;27.30;;;5.55;;
58615;SDS011;44385;51.992;4.206;2023-12-28T14:22:19;23.00;;;3.88;;
58615;SDS011;44385;51.992;4.206;2023-12-28T14:24:46;21.63;;;5.13;;
58615;SDS011;44385;51.992;4.206;2023-12-28T14:27:17;18.85;;;3.40;;
58615;SDS011;44385;51.992;4.206;2023-12-28T14:29:44;22.00;;;4.22;;
58615;SDS011;44385;51.992;4.206;2023-12-28T14:32:11;20.55;;;4.35;;
58615;SDS011;44385;51.992;4.206;2023-12-28T14:34:38;16.90;;;3.65;;
58615;SDS011;44385;51.992;4.206;2023-12-28T14:37:05;21.38;;;3.80;;
58615;SDS011;44385;51.992;4.206;2023-12-28T14:39:33;18.25;;;4.30;;